createdAt,value
2022-10-08T00:00:27.434Z,98711.81
2022-10-08T00:03:29.347Z,98713.63
2022-10-08T00:06:31.252Z,98711.88
2022-10-08T00:09:32.604Z,98704.97
2022-10-08T00:12:34.101Z,98704.13
2022-10-08T00:15:36.367Z,98699.81
2022-10-08T00:18:38.118Z,98701.56
2022-10-08T00:21:40.123Z,98692.00
2022-10-08T00:24:41.603Z,98700.78
2022-10-08T00:27:43.004Z,98706.03
2022-10-08T00:30:44.377Z,98706.00
2022-10-08T00:33:45.794Z,98699.88
2022-10-08T00:36:49.729Z,98694.66
2022-10-08T00:39:51.258Z,98695.50
2022-10-08T00:42:53.613Z,98692.00
2022-10-08T00:45:55.065Z,98694.66
2022-10-08T00:49:03.910Z,98688.50
2022-10-08T00:52:05.316Z,98688.53
2022-10-08T00:55:06.838Z,98691.19
2022-10-08T00:58:15.629Z,98693.78
2022-10-08T01:01:17.152Z,98685.06
2022-10-08T01:04:18.529Z,98681.63
2022-10-08T01:07:24.410Z,98677.25
2022-10-08T01:10:32.092Z,98678.97
2022-10-08T01:13:49.865Z,98679.84
2022-10-08T01:16:55.016Z,98682.50
2022-10-08T01:19:56.324Z,98682.44
2022-10-08T01:23:03.853Z,98678.09
2022-10-08T01:26:11.336Z,98682.47
2022-10-08T01:29:23.225Z,98680.75
2022-10-08T01:32:26.352Z,98679.00
2022-10-08T01:35:29.150Z,98674.56
2022-10-08T01:38:33.483Z,98680.66
2022-10-08T01:41:34.885Z,98676.31
2022-10-08T01:44:38.811Z,98671.06
2022-10-08T01:47:40.671Z,98674.53
2022-10-08T01:50:46.066Z,98668.41
2022-10-08T01:53:47.489Z,98660.56
2022-10-08T01:56:48.870Z,98661.44
2022-10-08T01:59:51.495Z,98668.44
2022-10-08T02:02:54.130Z,98664.91
2022-10-08T02:05:55.523Z,98651.84
2022-10-08T02:08:57.004Z,98654.47
2022-10-08T02:11:58.409Z,98658.81
2022-10-08T02:14:59.832Z,98657.09
2022-10-08T02:18:15.057Z,98664.06
2022-10-08T02:21:19.835Z,98656.22
2022-10-08T02:24:28.419Z,98651.84
2022-10-08T02:27:30.452Z,98652.75
2022-10-08T02:30:37.152Z,98657.97
2022-10-08T02:33:40.066Z,98656.22
2022-10-08T02:36:42.003Z,98659.66
2022-10-08T02:39:45.191Z,98655.28
2022-10-08T02:42:48.596Z,98657.03
2022-10-08T02:45:57.863Z,98665.69
2022-10-08T02:49:09.450Z,98657.84
2022-10-08T02:52:10.860Z,98659.53
2022-10-08T02:55:32.434Z,98661.28
2022-10-08T02:58:33.838Z,98654.28
2022-10-08T03:01:49.066Z,98662.13
2022-10-08T03:04:55.381Z,98663.91
2022-10-08T03:07:56.762Z,98666.53
2022-10-08T03:10:58.532Z,98669.16
2022-10-08T03:13:59.890Z,98673.53
2022-10-08T03:17:01.331Z,98670.03
2022-10-08T03:20:03.563Z,98671.75
2022-10-08T03:23:04.933Z,98670.84
2022-10-08T03:26:06.324Z,98671.69
2022-10-08T03:29:07.831Z,98682.22
2022-10-08T03:32:09.268Z,98683.09
2022-10-08T03:35:10.638Z,98684.78
2022-10-08T03:38:12.222Z,98690.03
2022-10-08T03:41:13.572Z,98695.22
2022-10-08T03:44:14.906Z,98703.97
2022-10-08T03:47:16.252Z,98706.59
2022-10-08T03:50:17.618Z,98705.69
2022-10-08T03:53:19.111Z,98706.56
2022-10-08T03:56:20.976Z,98709.19
2022-10-08T03:59:22.371Z,98703.06
2022-10-08T04:02:23.780Z,98708.25
2022-10-08T04:05:25.147Z,98716.97
2022-10-08T04:08:27.160Z,98717.81
2022-10-08T04:11:28.950Z,98722.13
2022-10-08T04:14:30.265Z,98728.19
2022-10-08T04:17:31.632Z,98720.28
2022-10-08T04:20:33.229Z,98716.78
2022-10-08T04:23:35.048Z,98718.53
2022-10-08T04:26:36.383Z,98716.75
2022-10-08T04:29:37.736Z,98718.50
2022-10-08T04:32:39.132Z,98725.44
2022-10-08T04:35:40.515Z,98725.41
2022-10-08T04:38:42.230Z,98727.09
2022-10-08T04:41:43.592Z,98734.94
2022-10-08T04:44:44.945Z,98727.06
2022-10-08T04:47:46.398Z,98727.91
2022-10-08T04:50:47.785Z,98734.03
2022-10-08T04:53:49.160Z,98739.22
2022-10-08T04:56:50.560Z,98744.44
2022-10-08T05:00:13.550Z,98741.81
2022-10-08T05:03:13.424Z,98740.88
2022-10-08T05:06:16.568Z,98738.28
2022-10-08T05:09:17.902Z,98747.00
2022-10-08T05:12:19.306Z,98744.31
2022-10-08T05:15:20.645Z,98745.09
2022-10-08T05:18:22.706Z,98752.13
2022-10-08T05:21:27.644Z,98749.50
2022-10-08T05:24:29.029Z,98749.50
2022-10-08T05:27:31.185Z,98753.91
2022-10-08T05:30:32.559Z,98754.78
2022-10-08T05:33:34.863Z,98754.75
2022-10-08T05:36:36.256Z,98760.84
2022-10-08T05:39:37.614Z,98760.84
2022-10-08T05:42:38.983Z,98764.31
2022-10-08T05:45:40.379Z,98763.47
2022-10-08T05:48:42.376Z,98764.34
2022-10-08T05:51:43.740Z,98761.78
2022-10-08T05:54:45.157Z,98769.69
2022-10-08T05:57:46.550Z,98767.09
2022-10-08T06:00:56.373Z,98768.00
2022-10-08T06:03:58.449Z,98772.38
2022-10-08T06:06:59.805Z,98773.28
2022-10-08T06:10:01.181Z,98780.28
2022-10-08T06:13:02.600Z,98782.03
2022-10-08T06:16:05.175Z,98784.66
2022-10-08T06:19:07.098Z,98795.13
2022-10-08T06:22:08.771Z,98791.69
2022-10-08T06:25:10.165Z,98792.56
2022-10-08T06:28:11.505Z,98797.81
2022-10-08T06:31:12.911Z,98804.81
2022-10-08T06:34:14.498Z,98805.75
2022-10-08T06:37:15.853Z,98807.53
2022-10-08T06:40:17.331Z,98810.13
2022-10-08T06:43:18.973Z,98807.47
2022-10-08T06:46:20.457Z,98819.66
2022-10-08T06:49:26.541Z,98823.13
2022-10-08T06:52:27.918Z,98825.69
2022-10-08T06:55:29.321Z,98841.38
2022-10-08T06:58:30.697Z,98844.81
2022-10-08T07:01:34.011Z,98843.81
2022-10-08T07:04:35.686Z,98849.00
2022-10-08T07:07:37.075Z,98859.31
2022-10-08T07:10:38.468Z,98856.75
2022-10-08T07:13:39.875Z,98862.78
2022-10-08T07:16:41.400Z,98867.91
2022-10-08T07:19:43.184Z,98877.50
2022-10-08T07:22:44.895Z,98884.56
2022-10-08T07:25:54.582Z,98887.22
2022-10-08T07:28:56.942Z,98894.13
2022-10-08T07:31:58.362Z,98900.28
2022-10-08T07:35:00.155Z,98909.81
2022-10-08T07:38:01.609Z,98901.00
2022-10-08T07:41:02.947Z,98911.31
2022-10-08T07:44:04.422Z,98922.59
2022-10-08T07:47:05.896Z,98931.47
2022-10-08T07:50:07.379Z,98953.19
2022-10-08T07:53:08.704Z,98980.16
2022-10-08T07:56:10.419Z,98993.94
2022-10-08T07:59:15.016Z,99000.84
2022-10-08T08:02:16.701Z,99005.94
2022-10-08T08:05:18.140Z,99003.47
2022-10-08T08:08:23.383Z,99002.50
2022-10-08T08:11:24.823Z,99004.25
2022-10-08T08:14:26.179Z,99004.25
2022-10-08T08:17:27.570Z,99007.75
2022-10-08T08:20:29.069Z,99010.25
2022-10-08T08:23:34.113Z,99025.66
2022-10-08T08:26:36.031Z,99028.81
2022-10-08T08:29:37.521Z,99034.75
2022-10-08T08:32:38.890Z,99029.19
2022-10-08T08:35:40.251Z,99040.06
2022-10-08T08:38:41.566Z,99030.53
2022-10-08T08:41:42.914Z,99028.63
2022-10-08T08:44:44.867Z,99044.94
2022-10-08T08:47:49.203Z,99034.91
2022-10-08T08:50:51.158Z,99033.03
2022-10-08T08:53:52.576Z,99049.06
2022-10-08T08:56:53.950Z,99047.97
2022-10-08T08:59:55.750Z,99040.34
2022-10-08T09:03:00.141Z,99038.84
2022-10-08T09:06:02.638Z,99039.41
2022-10-08T09:09:22.815Z,99044.00
2022-10-08T09:12:30.774Z,99021.31
2022-10-08T09:15:33.896Z,99036.84
2022-10-08T09:18:35.260Z,99040.56
2022-10-08T09:21:36.601Z,99034.81
2022-10-08T09:24:37.923Z,99041.91
2022-10-08T09:27:53.155Z,99042.81
2022-10-08T09:30:57.605Z,99046.81
2022-10-08T09:34:01.561Z,99051.84
2022-10-08T09:37:03.864Z,99045.56
2022-10-08T09:40:06.486Z,99055.78
2022-10-08T09:43:11.991Z,99061.75
2022-10-08T09:46:27.921Z,99064.50
2022-10-08T09:49:31.235Z,99067.59
2022-10-08T09:52:33.014Z,99074.06
2022-10-08T09:55:35.336Z,99069.75
2022-10-08T09:58:47.881Z,99077.91
2022-10-08T10:01:49.288Z,99077.91
2022-10-08T10:04:50.823Z,99081.13
2022-10-08T10:07:52.261Z,99088.84
2022-10-08T10:10:53.646Z,99086.75
2022-10-08T10:13:55.026Z,99096.00
2022-10-08T10:16:58.443Z,99094.31
2022-10-08T10:20:01.550Z,99080.38
2022-10-08T10:23:03.802Z,99057.75
2022-10-08T10:26:21.904Z,99089.13
2022-10-08T10:29:24.552Z,99097.25
2022-10-08T10:32:31.697Z,99081.09
2022-10-08T10:35:44.990Z,99087.44
2022-10-08T10:38:54.737Z,99088.59
2022-10-08T10:42:04.991Z,99095.78
2022-10-08T10:45:20.258Z,99090.13
2022-10-08T10:48:21.741Z,99084.22
2022-10-08T10:51:29.552Z,99091.69
2022-10-08T10:54:40.481Z,99096.50
2022-10-08T10:57:57.153Z,99097.78
2022-10-08T11:01:04.521Z,99097.25
2022-10-08T11:04:20.987Z,99094.75
2022-10-08T11:07:41.342Z,99095.00
2022-10-08T11:11:01.630Z,99089.19
2022-10-08T11:14:11.601Z,99085.03
2022-10-08T11:17:31.753Z,99069.19
2022-10-08T11:20:38.028Z,99072.84
2022-10-08T11:23:48.501Z,99088.13
2022-10-08T11:27:03.006Z,99069.47
2022-10-08T11:30:14.802Z,99079.72
2022-10-08T11:33:16.349Z,99084.72
2022-10-08T11:36:35.785Z,99080.25
2022-10-08T11:39:42.030Z,99088.97
2022-10-08T11:42:53.143Z,99090.03
2022-10-08T11:46:31.415Z,99080.25
2022-10-08T11:49:32.962Z,99064.56
2022-10-08T11:52:34.777Z,99071.22
2022-10-08T11:55:36.267Z,99068.88
2022-10-08T11:58:38.116Z,99079.81
2022-10-08T12:01:52.518Z,99101.25
2022-10-08T12:04:53.959Z,99101.19
2022-10-08T12:07:56.002Z,99091.75
2022-10-08T12:10:57.351Z,99090.44
2022-10-08T12:14:10.968Z,99085.34
2022-10-08T12:17:12.380Z,99084.41
2022-10-08T12:20:18.701Z,99090.03
2022-10-08T12:23:19.995Z,99091.97
2022-10-08T12:26:21.367Z,99101.47
2022-10-08T12:29:29.347Z,99090.22
2022-10-08T12:32:30.709Z,99092.47
2022-10-08T12:35:34.827Z,99091.81
2022-10-08T12:38:55.281Z,99089.56
2022-10-08T12:42:17.267Z,99088.72
2022-10-08T12:45:22.702Z,99085.34
2022-10-08T12:48:32.056Z,99092.69
2022-10-08T12:51:40.184Z,99099.09
2022-10-08T12:54:46.929Z,99098.75
2022-10-08T12:57:48.763Z,99080.63
2022-10-08T13:00:54.494Z,99082.69
2022-10-08T13:04:33.971Z,99080.16
2022-10-08T13:07:35.387Z,99097.41
2022-10-08T13:10:36.915Z,99101.25
2022-10-08T13:13:38.237Z,99090.84
2022-10-08T13:16:45.836Z,99081.47
2022-10-08T13:19:47.209Z,99081.31
2022-10-08T13:22:48.626Z,99087.34
2022-10-08T13:25:49.991Z,99090.19
2022-10-08T13:29:00.323Z,99096.09
2022-10-08T13:32:02.092Z,99082.44
2022-10-08T13:35:04.220Z,99074.38
2022-10-08T13:38:07.129Z,99091.22
2022-10-08T13:41:08.578Z,99092.91
2022-10-08T13:44:09.956Z,99100.38
2022-10-08T13:47:15.950Z,99101.28
2022-10-08T13:50:17.484Z,99088.38
2022-10-08T13:53:19.936Z,99090.72
2022-10-08T13:56:24.381Z,99094.09
2022-10-08T13:59:30.267Z,99091.22
2022-10-08T14:02:32.228Z,99092.22
2022-10-08T14:05:35.182Z,99085.28
2022-10-08T14:08:37.095Z,99083.38
2022-10-08T14:11:41.215Z,99077.81
2022-10-08T14:14:44.328Z,99075.56
2022-10-08T14:17:45.816Z,99067.19
2022-10-08T14:20:48.737Z,99064.75
2022-10-08T14:23:50.141Z,99080.19
2022-10-08T14:26:51.557Z,99071.44
2022-10-08T14:29:52.905Z,99076.88
2022-10-08T14:32:54.292Z,99069.41
2022-10-08T14:35:55.797Z,99075.75
2022-10-08T14:38:57.182Z,99073.16
2022-10-08T14:41:58.757Z,99073.38
2022-10-08T14:45:00.129Z,99066.25
2022-10-08T14:48:01.472Z,99076.22
2022-10-08T14:51:03.062Z,99075.66
2022-10-08T14:54:05.694Z,99077.63
2022-10-08T14:57:07.055Z,99080.50
2022-10-08T15:00:08.672Z,99074.63
2022-10-08T15:03:10.034Z,99075.63
2022-10-08T15:06:11.427Z,99077.47
2022-10-08T15:09:13.564Z,99084.03
2022-10-08T15:12:14.947Z,99075.44
2022-10-08T15:15:18.601Z,99078.25
2022-10-08T15:18:20.276Z,99078.16
2022-10-08T15:21:21.669Z,99077.09
2022-10-08T15:24:23.010Z,99078.59
2022-10-08T15:27:24.357Z,99073.97
2022-10-08T15:30:25.754Z,99082.75
2022-10-08T15:33:27.089Z,99071.66
2022-10-08T15:36:29.602Z,99085.25
2022-10-08T15:39:35.495Z,99086.31
2022-10-08T15:42:37.283Z,99086.63
2022-10-08T15:45:42.062Z,99090.13
2022-10-08T15:48:49.907Z,99093.78
2022-10-08T15:51:51.249Z,99094.88
2022-10-08T15:54:52.931Z,99099.44
2022-10-08T15:57:54.297Z,99095.22
2022-10-08T16:00:55.728Z,99099.09
2022-10-08T16:03:57.312Z,99097.56
2022-10-08T16:06:58.722Z,99100.25
2022-10-08T16:10:00.067Z,99106.50
2022-10-08T16:13:01.662Z,99105.91
2022-10-08T16:16:04.466Z,99105.13
2022-10-08T16:19:06.552Z,99114.78
2022-10-08T16:22:08.796Z,99105.31
2022-10-08T16:25:10.238Z,99114.13
2022-10-08T16:28:11.747Z,99112.41
2022-10-08T16:31:13.178Z,99117.78
2022-10-08T16:34:18.318Z,99123.97
2022-10-08T16:37:19.637Z,99117.19
2022-10-08T16:40:21.066Z,99125.91
2022-10-08T16:43:22.389Z,99121.66
2022-10-08T16:46:30.960Z,99130.41
2022-10-08T16:49:32.419Z,99126.97
2022-10-08T16:52:33.788Z,99132.25
2022-10-08T16:55:38.239Z,99137.47
2022-10-08T16:58:39.598Z,99139.28
2022-10-08T17:01:41.906Z,99137.63
2022-10-08T17:04:43.450Z,99141.97
2022-10-08T17:07:44.821Z,99140.25
2022-10-08T17:10:46.158Z,99143.78
2022-10-08T17:13:48.441Z,99143.78
2022-10-08T17:16:49.937Z,99149.00
2022-10-08T17:19:51.361Z,99158.59
2022-10-08T17:22:52.696Z,99156.84
2022-10-08T17:25:57.280Z,99164.69
2022-10-08T17:29:01.974Z,99160.34
2022-10-08T17:32:06.197Z,99162.06
2022-10-08T17:35:07.690Z,99171.66
2022-10-08T17:38:09.030Z,99169.88
2022-10-08T17:41:11.123Z,99172.47
2022-10-08T17:44:12.733Z,99179.34
2022-10-08T17:47:14.137Z,99184.53
2022-10-08T17:50:15.511Z,99175.81
2022-10-08T17:53:16.870Z,99175.75
2022-10-08T17:56:18.230Z,99181.88
2022-10-08T17:59:19.747Z,99183.59
2022-10-08T18:02:21.122Z,99189.63
2022-10-08T18:05:22.538Z,99187.84
2022-10-08T18:08:23.974Z,99196.53
2022-10-08T18:11:25.413Z,99196.53
2022-10-08T18:14:26.790Z,99197.41
2022-10-08T18:17:28.197Z,99209.66
2022-10-08T18:20:29.641Z,99211.28
2022-10-08T18:23:31.603Z,99212.00
2022-10-08T18:26:34.725Z,99221.56
2022-10-08T18:29:36.362Z,99219.84
2022-10-08T18:32:37.694Z,99217.97
2022-10-08T18:35:39.081Z,99222.19
2022-10-08T18:38:40.830Z,99220.34
2022-10-08T18:41:42.961Z,99229.00
2022-10-08T18:44:44.330Z,99231.59
2022-10-08T18:47:45.658Z,99232.50
2022-10-08T18:50:47.073Z,99235.91
2022-10-08T18:53:48.551Z,99233.16
2022-10-08T18:56:49.869Z,99240.94
2022-10-08T18:59:51.260Z,99237.41
2022-10-08T19:02:54.409Z,99238.38
2022-10-08T19:05:55.866Z,99253.16
2022-10-08T19:08:57.600Z,99246.19
2022-10-08T19:12:00.768Z,99251.38
2022-10-08T19:15:02.117Z,99255.56
2022-10-08T19:18:04.065Z,99258.03
2022-10-08T19:21:12.182Z,99260.50
2022-10-08T19:24:14.403Z,99257.78
2022-10-08T19:27:15.750Z,99257.56
2022-10-08T19:30:19.414Z,99263.53
2022-10-08T19:33:23.894Z,99263.53
2022-10-08T19:36:25.652Z,99260.03
2022-10-08T19:39:27.462Z,99261.66
2022-10-08T19:42:28.788Z,99266.63
2022-10-08T19:45:30.156Z,99275.31
2022-10-08T19:48:31.645Z,99263.16
2022-10-08T19:51:33.016Z,99279.66
2022-10-08T19:54:34.404Z,99279.66
2022-10-08T19:57:36.567Z,99274.31
2022-10-08T20:00:37.935Z,99273.41
2022-10-08T20:03:39.354Z,99280.31
2022-10-08T20:06:41.119Z,99282.13
2022-10-08T20:09:42.500Z,99281.25
2022-10-08T20:12:44.338Z,99282.84
2022-10-08T20:15:50.370Z,99288.66
2022-10-08T20:18:53.661Z,99280.78
2022-10-08T20:21:55.775Z,99285.03
2022-10-08T20:24:57.126Z,99283.22
2022-10-08T20:27:58.495Z,99282.31
2022-10-08T20:31:07.678Z,99281.28
2022-10-08T20:34:12.888Z,99280.41
2022-10-08T20:37:14.238Z,99288.06
2022-10-08T20:40:15.657Z,99277.66
2022-10-08T20:43:17.005Z,99285.53
2022-10-08T20:46:18.581Z,99287.44
2022-10-08T20:49:20.344Z,99280.50
2022-10-08T20:52:21.661Z,99273.34
2022-10-08T20:55:23.021Z,99279.31
2022-10-08T20:58:24.579Z,99279.19
2022-10-08T21:01:29.853Z,99279.88
2022-10-08T21:04:31.377Z,99280.81
2022-10-08T21:07:32.710Z,99276.66
2022-10-08T21:10:35.256Z,99285.38
2022-10-08T21:13:36.816Z,99279.94
2022-10-08T21:16:38.707Z,99285.75
2022-10-08T21:19:40.110Z,99275.06
2022-10-08T21:22:41.455Z,99277.50
2022-10-08T21:25:43.073Z,99271.25
2022-10-08T21:28:44.819Z,99272.91
2022-10-08T21:31:46.330Z,99273.00
2022-10-08T21:34:47.753Z,99265.34
2022-10-08T21:37:49.178Z,99263.34
2022-10-08T21:40:54.256Z,99277.84
2022-10-08T21:43:56.847Z,99276.19
2022-10-08T21:46:58.273Z,99262.59
2022-10-08T21:49:59.731Z,99275.31
2022-10-08T21:53:01.146Z,99270.72
2022-10-08T21:56:07.377Z,99273.31
2022-10-08T21:59:09.073Z,99274.00
2022-10-08T22:02:10.439Z,99261.72
2022-10-08T22:05:11.802Z,99268.66
2022-10-08T22:08:13.129Z,99265.06
2022-10-08T22:11:14.992Z,99265.06
2022-10-08T22:14:16.629Z,99268.38
2022-10-08T22:17:17.977Z,99270.03
2022-10-08T22:20:19.379Z,99261.47
2022-10-08T22:23:20.799Z,99261.47
2022-10-08T22:26:42.400Z,99262.06
2022-10-08T22:29:43.826Z,99266.31
2022-10-08T22:32:45.538Z,99259.44
2022-10-08T22:35:47.299Z,99253.34
2022-10-08T22:38:48.693Z,99252.34
2022-10-08T22:41:50.072Z,99254.94
2022-10-08T22:44:51.503Z,99250.81
2022-10-08T22:47:52.878Z,99245.63
2022-10-08T22:50:54.267Z,99243.09
2022-10-08T22:53:55.738Z,99249.78
2022-10-08T22:56:57.098Z,99235.91
2022-10-08T22:59:58.458Z,99239.59
2022-10-08T23:02:59.846Z,99240.53
2022-10-08T23:06:05.365Z,99237.81
2022-10-08T23:09:07.347Z,99240.91
2022-10-08T23:12:08.718Z,99243.41
2022-10-08T23:15:10.100Z,99232.09
2022-10-08T23:18:11.492Z,99231.13
2022-10-08T23:21:13.816Z,99238.06
2022-10-08T23:24:15.247Z,99233.59
2022-10-08T23:27:16.660Z,99229.91
2022-10-08T23:30:41.609Z,99221.19
2022-10-08T23:33:40.183Z,99215.88
2022-10-08T23:36:42.569Z,99214.09
2022-10-08T23:39:44.026Z,99217.41
2022-10-08T23:42:45.895Z,99207.75
2022-10-08T23:45:50.327Z,99205.84
2022-10-08T23:48:51.817Z,99197.16
2022-10-08T23:51:53.225Z,99198.84
2022-10-08T23:54:54.705Z,99197.00
2022-10-08T23:57:56.197Z,99197.00
